createdAt,value
2022-11-21T00:01:30.214Z,96496.97
2022-11-21T00:03:32.779Z,96492.16
2022-11-21T00:05:35.503Z,96491.97
2022-11-21T00:07:38.305Z,96494.72
2022-11-21T00:09:42.290Z,96486.69
2022-11-21T00:11:44.902Z,96485.94
2022-11-21T00:13:47.502Z,96480.59
2022-11-21T00:15:50.091Z,96480.59
2022-11-21T00:17:53.513Z,96479.72
2022-11-21T00:19:56.149Z,96478.28
2022-11-21T00:21:58.704Z,96469.59
2022-11-21T00:24:01.289Z,96459.56
2022-11-21T00:26:09.932Z,96467.94
2022-11-21T00:28:12.498Z,96467.59
2022-11-21T00:30:15.831Z,96464.72
2022-11-21T00:32:18.464Z,96457.19
2022-11-21T00:34:21.068Z,96457.63
2022-11-21T00:36:23.739Z,96447.53
2022-11-21T00:38:28.026Z,96429.47
2022-11-21T00:40:30.619Z,96433.84
2022-11-21T00:42:34.567Z,96422.69
2022-11-21T00:44:37.204Z,96418.91
2022-11-21T00:46:39.797Z,96412.09
2022-11-21T00:48:42.432Z,96400.13
2022-11-21T00:50:45.032Z,96402.72
2022-11-21T00:52:47.665Z,96392.53
2022-11-21T00:54:50.217Z,96387.56
2022-11-21T00:56:53.021Z,96383.75
2022-11-21T00:58:56.974Z,96389.72
2022-11-21T01:01:07.480Z,96395.84
2022-11-21T01:03:10.123Z,96402.47
2022-11-21T01:05:12.714Z,96405.56
2022-11-21T01:07:15.948Z,96412.69
2022-11-21T01:09:18.685Z,96397.13
2022-11-21T01:11:22.330Z,96402.56
2022-11-21T01:13:24.953Z,96404.94
2022-11-21T01:15:29.139Z,96407.75
2022-11-21T01:17:33.241Z,96411.84
2022-11-21T01:19:35.942Z,96401.69
2022-11-21T01:21:38.544Z,96397.72
2022-11-21T01:23:41.213Z,96393.22
2022-11-21T01:25:43.864Z,96391.25
2022-11-21T01:27:46.496Z,96388.31
2022-11-21T01:29:49.174Z,96393.44
2022-11-21T01:31:53.096Z,96386.75
2022-11-21T01:33:56.116Z,96393.78
2022-11-21T01:35:58.748Z,96386.28
2022-11-21T01:38:01.370Z,96392.94
2022-11-21T01:40:04.769Z,96390.28
2022-11-21T01:42:07.405Z,96385.09
2022-11-21T01:44:18.878Z,96379.91
2022-11-21T01:46:23.120Z,96379.06
2022-11-21T01:48:31.151Z,96378.69
2022-11-21T01:50:33.759Z,96373.97
2022-11-21T01:52:36.396Z,96362.25
2022-11-21T01:54:43.611Z,96366.25
2022-11-21T01:56:50.183Z,96362.13
2022-11-21T01:58:54.331Z,96372.16
2022-11-21T02:00:57.268Z,96355.47
2022-11-21T02:03:03.600Z,96363.84
2022-11-21T02:05:12.461Z,96356.75
2022-11-21T02:07:17.146Z,96360.28
2022-11-21T02:09:21.083Z,96356.28
2022-11-21T02:11:31.513Z,96354.75
2022-11-21T02:13:48.039Z,96358.28
2022-11-21T02:15:50.836Z,96363.63
2022-11-21T02:17:53.458Z,96359.94
2022-11-21T02:19:58.738Z,96365.19
2022-11-21T02:22:09.301Z,96359.28
2022-11-21T02:24:19.041Z,96359.66
2022-11-21T02:26:23.143Z,96360.81
2022-11-21T02:28:26.933Z,96359.72
2022-11-21T02:30:30.550Z,96346.34
2022-11-21T02:32:35.210Z,96342.81
2022-11-21T02:34:37.806Z,96348.06
2022-11-21T02:36:43.854Z,96347.03
2022-11-21T02:38:46.545Z,96337.84
2022-11-21T02:40:54.160Z,96343.97
2022-11-21T02:43:11.637Z,96331.28
2022-11-21T02:45:20.076Z,96328.97
2022-11-21T02:47:23.680Z,96324.03
2022-11-21T02:49:36.104Z,96333.72
2022-11-21T02:51:38.726Z,96325.56
2022-11-21T02:53:41.358Z,96325.72
2022-11-21T02:55:44.389Z,96327.44
2022-11-21T02:57:47.008Z,96323.44
2022-11-21T02:59:51.154Z,96323.13
2022-11-21T03:01:53.818Z,96313.81
2022-11-21T03:03:56.422Z,96318.19
2022-11-21T03:05:59.009Z,96323.59
2022-11-21T03:08:03.142Z,96316.69
2022-11-21T03:10:06.580Z,96317.50
2022-11-21T03:12:10.164Z,96320.91
2022-11-21T03:14:12.774Z,96316.84
2022-11-21T03:16:16.721Z,96324.59
2022-11-21T03:18:19.281Z,96321.06
2022-11-21T03:20:21.942Z,96331.72
2022-11-21T03:22:24.886Z,96333.19
2022-11-21T03:24:27.739Z,96333.41
2022-11-21T03:26:30.518Z,96331.72
2022-11-21T03:28:33.140Z,96337.59
2022-11-21T03:30:35.773Z,96333.56
2022-11-21T03:32:39.697Z,96332.09
2022-11-21T03:34:42.623Z,96329.28
2022-11-21T03:36:45.204Z,96328.41
2022-11-21T03:38:47.872Z,96331.66
2022-11-21T03:40:50.505Z,96327.84
2022-11-21T03:42:53.102Z,96325.56
2022-11-21T03:44:55.710Z,96323.66
2022-11-21T03:46:58.282Z,96312.94
2022-11-21T03:49:02.423Z,96315.00
2022-11-21T03:51:08.025Z,96316.34
2022-11-21T03:53:10.716Z,96311.91
2022-11-21T03:55:16.326Z,96308.03
2022-11-21T03:57:18.936Z,96314.16
2022-11-21T03:59:21.627Z,96316.00
2022-11-21T04:01:25.094Z,96319.84
2022-11-21T04:03:27.747Z,96312.22
2022-11-21T04:05:31.687Z,96308.66
2022-11-21T04:07:34.377Z,96320.47
2022-11-21T04:09:36.992Z,96307.81
2022-11-21T04:11:39.561Z,96308.09
2022-11-21T04:13:42.283Z,96309.63
2022-11-21T04:15:45.547Z,96314.69
2022-11-21T04:17:48.134Z,96321.44
2022-11-21T04:19:50.737Z,96317.09
2022-11-21T04:21:54.650Z,96317.03
2022-11-21T04:23:57.227Z,96336.47
2022-11-21T04:26:00.219Z,96317.03
2022-11-21T04:28:04.750Z,96312.78
2022-11-21T04:30:08.126Z,96307.56
2022-11-21T04:32:10.740Z,96308.94
2022-11-21T04:34:13.315Z,96310.78
2022-11-21T04:36:15.968Z,96314.84
2022-11-21T04:38:19.892Z,96314.25
2022-11-21T04:40:22.604Z,96322.81
2022-11-21T04:42:25.430Z,96323.84
2022-11-21T04:44:28.565Z,96315.00
2022-11-21T04:46:31.397Z,96316.84
2022-11-21T04:48:34.002Z,96318.22
2022-11-21T04:50:36.594Z,96329.50
2022-11-21T04:52:39.457Z,96323.50
2022-11-21T04:54:43.416Z,96330.59
2022-11-21T04:56:45.985Z,96333.94
2022-11-21T04:58:48.602Z,96331.22
2022-11-21T05:00:51.253Z,96323.78
2022-11-21T05:02:53.929Z,96317.47
2022-11-21T05:04:56.536Z,96315.09
2022-11-21T05:06:59.185Z,96313.38
2022-11-21T05:09:01.908Z,96312.88
2022-11-21T05:11:23.501Z,96319.03
2022-11-21T05:13:26.144Z,96307.19
2022-11-21T05:15:28.789Z,96308.69
2022-11-21T05:17:31.458Z,96319.44
2022-11-21T05:19:34.121Z,96320.16
2022-11-21T05:21:36.808Z,96318.72
2022-11-21T05:23:39.480Z,96317.66
2022-11-21T05:25:42.560Z,96314.16
2022-11-21T05:27:46.537Z,96309.34
2022-11-21T05:29:49.206Z,96323.28
2022-11-21T05:31:51.879Z,96320.84
2022-11-21T05:33:54.468Z,96333.44
2022-11-21T05:35:57.173Z,96331.75
2022-11-21T05:37:59.971Z,96327.03
2022-11-21T05:40:02.704Z,96325.78
2022-11-21T05:42:05.444Z,96333.44
2022-11-21T05:44:08.445Z,96323.19
2022-11-21T05:46:11.075Z,96326.16
2022-11-21T05:48:13.656Z,96324.13
2022-11-21T05:50:16.491Z,96321.38
2022-11-21T05:52:19.104Z,96329.44
2022-11-21T05:54:21.750Z,96327.94
2022-11-21T05:56:24.354Z,96323.19
2022-11-21T05:58:27.004Z,96324.09
2022-11-21T06:00:31.313Z,96322.59
2022-11-21T06:02:51.488Z,96331.31
2022-11-21T06:04:54.125Z,96326.09
2022-11-21T06:06:56.722Z,96330.34
2022-11-21T06:08:59.322Z,96326.16
2022-11-21T06:11:02.092Z,96318.06
2022-11-21T06:13:21.845Z,96324.88
2022-11-21T06:15:24.481Z,96324.09
2022-11-21T06:17:28.412Z,96321.84
2022-11-21T06:19:30.991Z,96321.78
2022-11-21T06:21:37.261Z,96322.00
2022-11-21T06:23:39.910Z,96317.63
2022-11-21T06:25:43.565Z,96315.97
2022-11-21T06:27:46.165Z,96322.13
2022-11-21T06:29:48.807Z,96316.97
2022-11-21T06:31:51.706Z,96313.56
2022-11-21T06:33:57.261Z,96321.09
2022-11-21T06:36:02.972Z,96317.72
2022-11-21T06:38:05.616Z,96318.63
2022-11-21T06:40:09.179Z,96328.69
2022-11-21T06:42:11.866Z,96322.81
2022-11-21T06:44:14.471Z,96318.50
2022-11-21T06:46:17.699Z,96316.78
2022-11-21T06:48:20.296Z,96320.06
2022-11-21T06:50:24.229Z,96330.31
2022-11-21T06:52:26.793Z,96327.78
2022-11-21T06:54:30.036Z,96329.66
2022-11-21T06:56:33.466Z,96328.63
2022-11-21T06:58:36.429Z,96332.88
2022-11-21T07:00:39.059Z,96328.81
2022-11-21T07:02:41.722Z,96330.47
2022-11-21T07:04:44.370Z,96337.47
2022-11-21T07:06:48.370Z,96328.84
2022-11-21T07:09:17.502Z,96333.09
2022-11-21T07:11:25.302Z,96333.03
2022-11-21T07:13:28.497Z,96335.28
2022-11-21T07:15:31.095Z,96333.63
2022-11-21T07:17:33.689Z,96329.66
2022-11-21T07:19:40.622Z,96330.91
2022-11-21T07:21:44.074Z,96334.63
2022-11-21T07:23:48.640Z,96330.41
2022-11-21T07:25:51.226Z,96340.13
2022-11-21T07:27:53.843Z,96326.81
2022-11-21T07:29:57.435Z,96322.53
2022-11-21T07:32:00.070Z,96330.28
2022-11-21T07:34:02.686Z,96328.78
2022-11-21T07:36:05.884Z,96323.59
2022-11-21T07:38:08.443Z,96322.97
2022-11-21T07:40:13.654Z,96330.75
2022-11-21T07:42:16.244Z,96317.72
2022-11-21T07:44:18.880Z,96323.69
2022-11-21T07:46:21.506Z,96322.34
2022-11-21T07:48:24.100Z,96321.66
2022-11-21T07:50:26.779Z,96324.91
2022-11-21T07:52:30.331Z,96316.84
2022-11-21T07:54:32.935Z,96325.03
2022-11-21T07:56:36.867Z,96328.22
2022-11-21T07:58:39.499Z,96322.75
2022-11-21T08:00:43.687Z,96316.22
2022-11-21T08:02:46.311Z,96321.97
2022-11-21T08:04:49.143Z,96321.31
2022-11-21T08:06:51.762Z,96318.50
2022-11-21T08:08:54.807Z,96326.44
2022-11-21T08:10:57.580Z,96326.50
2022-11-21T08:13:03.952Z,96323.81
2022-11-21T08:15:08.584Z,96325.34
2022-11-21T08:17:11.398Z,96318.91
2022-11-21T08:19:13.970Z,96318.22
2022-11-21T08:21:19.761Z,96313.88
2022-11-21T08:23:22.788Z,96309.41
2022-11-21T08:25:25.722Z,96312.75
2022-11-21T08:27:29.262Z,96309.16
2022-11-21T08:29:33.207Z,96305.00
2022-11-21T08:31:35.798Z,96309.47
2022-11-21T08:33:38.434Z,96314.28
2022-11-21T08:35:42.182Z,96317.66
2022-11-21T08:37:44.815Z,96315.75
2022-11-21T08:39:47.384Z,96313.47
2022-11-21T08:42:05.413Z,96317.28
2022-11-21T08:44:13.629Z,96310.34
2022-11-21T08:46:18.612Z,96305.25
2022-11-21T08:48:21.194Z,96305.06
2022-11-21T08:50:24.407Z,96312.84
2022-11-21T08:52:27.030Z,96304.41
2022-11-21T08:54:29.832Z,96303.13
2022-11-21T08:56:32.727Z,96307.38
2022-11-21T08:58:35.410Z,96303.28
2022-11-21T09:00:37.985Z,96301.69
2022-11-21T09:02:41.999Z,96303.28
2022-11-21T09:04:44.611Z,96298.88
2022-11-21T09:06:48.069Z,96289.53
2022-11-21T09:08:50.762Z,96287.78
2022-11-21T09:10:53.591Z,96283.69
2022-11-21T09:12:58.834Z,96287.72
2022-11-21T09:15:19.117Z,96285.91
2022-11-21T09:17:39.050Z,96283.88
2022-11-21T09:19:42.996Z,96281.25
2022-11-21T09:21:46.001Z,96285.50
2022-11-21T09:23:49.030Z,96274.34
2022-11-21T09:25:51.682Z,96277.41
2022-11-21T09:27:54.270Z,96274.16
2022-11-21T09:29:56.864Z,96274.81
2022-11-21T09:31:59.463Z,96290.63
2022-11-21T09:34:02.047Z,96273.03
2022-11-21T09:36:06.407Z,96280.31
2022-11-21T09:38:09.181Z,96286.88
2022-11-21T09:40:14.533Z,96286.88
2022-11-21T09:42:46.522Z,96288.22
2022-11-21T09:45:04.563Z,96282.66
2022-11-21T09:47:19.894Z,96288.06
2022-11-21T09:49:26.838Z,96280.13
2022-11-21T09:51:32.337Z,96276.06
2022-11-21T09:53:37.685Z,96271.88
2022-11-21T09:55:45.022Z,96269.16
2022-11-21T09:57:49.840Z,96260.50
2022-11-21T09:59:53.473Z,96256.00
2022-11-21T10:01:56.661Z,96246.44
2022-11-21T10:04:02.854Z,96234.22
2022-11-21T10:06:15.173Z,96237.13
2022-11-21T10:08:30.612Z,96232.84
2022-11-21T10:10:50.273Z,96225.56
2022-11-21T10:13:05.656Z,96225.09
2022-11-21T10:15:23.611Z,96216.50
2022-11-21T10:17:31.698Z,96201.31
2022-11-21T10:19:49.298Z,96203.19
2022-11-21T10:22:09.219Z,96223.19
2022-11-21T10:24:30.311Z,96189.63
2022-11-21T10:26:43.006Z,96194.00
2022-11-21T10:28:52.560Z,96189.56
2022-11-21T10:31:00.039Z,96178.34
2022-11-21T10:33:05.511Z,96177.44
2022-11-21T10:35:16.301Z,96177.91
2022-11-21T10:37:29.620Z,96177.81
2022-11-21T10:39:39.637Z,96162.78
2022-11-21T10:41:50.518Z,96156.38
2022-11-21T10:44:22.903Z,96164.06
2022-11-21T10:46:25.592Z,96155.19
2022-11-21T10:48:28.197Z,96157.59
2022-11-21T10:50:43.868Z,96154.53
2022-11-21T10:52:49.640Z,96151.03
2022-11-21T10:55:11.003Z,96145.56
2022-11-21T10:57:16.225Z,96148.59
2022-11-21T10:59:30.418Z,96136.81
2022-11-21T11:01:36.369Z,96137.66
2022-11-21T11:03:38.965Z,96140.25
2022-11-21T11:05:43.825Z,96129.31
2022-11-21T11:08:01.217Z,96121.31
2022-11-21T11:10:27.537Z,96123.63
2022-11-21T11:12:45.882Z,96112.72
2022-11-21T11:14:52.415Z,96116.19
2022-11-21T11:16:55.178Z,96101.53
2022-11-21T11:19:01.198Z,96102.06
2022-11-21T11:21:16.647Z,96112.03
2022-11-21T11:23:28.461Z,96105.81
2022-11-21T11:25:35.021Z,96093.09
2022-11-21T11:27:38.589Z,96084.66
2022-11-21T11:29:53.205Z,96085.75
2022-11-21T11:31:58.482Z,96089.16
2022-11-21T11:34:01.147Z,96084.16
2022-11-21T11:36:14.219Z,96078.47
2022-11-21T11:38:18.584Z,96072.34
2022-11-21T11:40:29.431Z,96070.94
2022-11-21T11:43:23.774Z,96065.91
2022-11-21T11:46:07.320Z,96061.84
2022-11-21T11:48:11.207Z,96060.91
2022-11-21T11:50:20.073Z,96048.09
2022-11-21T11:52:26.856Z,96048.84
2022-11-21T11:54:35.992Z,96040.25
2022-11-21T11:56:39.318Z,96040.44
2022-11-21T11:58:47.257Z,96048.84
2022-11-21T12:00:56.635Z,96042.22
2022-11-21T12:03:05.011Z,96035.13
2022-11-21T12:05:16.619Z,96022.44
2022-11-21T12:09:51.858Z,96014.81
2022-11-21T12:12:08.806Z,96019.09
2022-11-21T12:14:55.687Z,96019.72
2022-11-21T12:16:58.511Z,96012.31
2022-11-21T12:19:04.081Z,96007.50
2022-11-21T12:21:13.098Z,96001.84
2022-11-21T12:23:17.083Z,96000.63
2022-11-21T12:25:24.683Z,95991.91
2022-11-21T12:27:32.311Z,95974.16
2022-11-21T12:29:51.382Z,95965.59
2022-11-21T12:32:12.611Z,95962.72
2022-11-21T12:34:31.562Z,95962.63
2022-11-21T12:36:39.841Z,95957.44
2022-11-21T12:38:53.718Z,95959.88
2022-11-21T12:41:27.672Z,95949.25
2022-11-21T12:43:40.894Z,95936.69
2022-11-21T12:45:49.747Z,95927.88
2022-11-21T12:48:33.124Z,95933.69
2022-11-21T12:51:02.045Z,95921.41
2022-11-21T12:53:30.471Z,95924.47
2022-11-21T12:55:38.994Z,95908.94
2022-11-21T12:57:56.004Z,95908.16
2022-11-21T13:00:09.010Z,95902.22
2022-11-21T13:02:25.849Z,95898.94
2022-11-21T13:04:31.917Z,95904.47
2022-11-21T13:06:40.280Z,95902.53
2022-11-21T13:08:45.229Z,95894.53
2022-11-21T13:11:14.510Z,95902.75
2022-11-21T13:13:23.139Z,95890.22
2022-11-21T13:15:35.432Z,95889.22
2022-11-21T13:17:49.529Z,95875.88
2022-11-21T13:19:56.462Z,95870.19
2022-11-21T13:21:59.080Z,95866.75
2022-11-21T13:24:01.733Z,95859.38
2022-11-21T13:26:42.689Z,95863.66
2022-11-21T13:28:47.771Z,95868.03
2022-11-21T13:30:52.235Z,95855.94
2022-11-21T13:32:56.601Z,95846.38
2022-11-21T13:34:59.197Z,95851.50
2022-11-21T13:37:01.822Z,95849.06
2022-11-21T13:39:35.967Z,95849.66
2022-11-21T13:42:20.375Z,95846.28
2022-11-21T13:44:40.659Z,95828.50
2022-11-21T13:46:59.451Z,95828.34
2022-11-21T13:49:18.166Z,95820.13
2022-11-21T13:51:48.335Z,95822.63
2022-11-21T13:54:10.644Z,95823.25
2022-11-21T13:56:26.426Z,95816.34
2022-11-21T13:58:42.839Z,95810.28
2022-11-21T14:01:08.458Z,95803.53
2022-11-21T14:03:37.268Z,95810.38
2022-11-21T14:05:57.719Z,95818.53
2022-11-21T14:08:14.467Z,95809.03
2022-11-21T14:10:30.997Z,95801.41
2022-11-21T14:12:41.239Z,95796.41
2022-11-21T14:14:52.670Z,95795.63
2022-11-21T14:17:11.381Z,95791.28
2022-11-21T14:19:15.441Z,95788.81
2022-11-21T14:21:26.498Z,95789.69
2022-11-21T14:23:31.481Z,95783.72
2022-11-21T14:25:42.660Z,95783.63
2022-11-21T14:27:49.882Z,95781.03
2022-11-21T14:29:52.604Z,95777.69
2022-11-21T14:31:55.715Z,95774.25
2022-11-21T14:33:59.160Z,95763.00
2022-11-21T14:36:05.432Z,95757.06
2022-11-21T14:38:09.566Z,95745.94
2022-11-21T14:40:15.103Z,95748.53
2022-11-21T14:42:18.163Z,95746.84
2022-11-21T14:44:22.752Z,95747.00
2022-11-21T14:46:27.234Z,95735.78
2022-11-21T14:48:31.128Z,95732.41
2022-11-21T14:50:36.076Z,95732.41
2022-11-21T14:52:38.747Z,95734.19
2022-11-21T14:55:13.393Z,95735.94
2022-11-21T14:57:21.706Z,95720.63
2022-11-21T14:59:26.558Z,95706.09
2022-11-21T15:01:30.875Z,95706.19
2022-11-21T15:03:33.899Z,95696.75
2022-11-21T15:08:17.193Z,95684.94
2022-11-21T15:10:30.664Z,95678.25
2022-11-21T15:12:48.142Z,95673.28
2022-11-21T15:14:55.607Z,95670.03
2022-11-21T15:17:00.317Z,95660.75
2022-11-21T15:19:09.241Z,95655.78
2022-11-21T15:21:16.877Z,95645.56
2022-11-21T15:23:28.167Z,95640.63
2022-11-21T15:25:45.385Z,95635.69
2022-11-21T15:27:49.374Z,95629.81
2022-11-21T15:30:02.321Z,95628.31
2022-11-21T15:32:12.609Z,95625.06
2022-11-21T15:34:35.498Z,95612.16
2022-11-21T15:36:38.997Z,95596.09
2022-11-21T15:38:47.036Z,95592.81
2022-11-21T15:41:06.009Z,95587.00
2022-11-21T15:43:10.034Z,95578.50
2022-11-21T15:45:25.239Z,95572.72
2022-11-21T15:47:28.485Z,95569.44
2022-11-21T15:49:33.705Z,95573.13
2022-11-21T15:52:05.570Z,95565.59
2022-11-21T15:54:00.860Z,95565.91
2022-11-21T15:56:05.026Z,95561.66
2022-11-21T15:58:07.598Z,95558.47
2022-11-21T16:00:11.617Z,95554.25
2022-11-21T16:02:15.208Z,95553.59
2022-11-21T16:04:21.072Z,95552.00
2022-11-21T16:06:26.768Z,95547.66
2022-11-21T16:08:29.377Z,95548.88
2022-11-21T16:10:32.033Z,95543.88
2022-11-21T16:12:36.074Z,95535.66
2022-11-21T16:14:38.677Z,95527.13
2022-11-21T16:16:43.611Z,95521.25
2022-11-21T16:18:46.986Z,95516.38
2022-11-21T16:20:49.782Z,95514.72
2022-11-21T16:22:52.418Z,95506.19
2022-11-21T16:24:55.014Z,95499.50
2022-11-21T16:26:57.603Z,95495.31
2022-11-21T16:29:05.290Z,95490.19
2022-11-21T16:31:08.113Z,95489.59
2022-11-21T16:33:10.792Z,95493.25
2022-11-21T16:35:13.408Z,95500.91
2022-11-21T16:37:16.012Z,95494.97
2022-11-21T16:39:18.811Z,95500.31
2022-11-21T16:41:23.533Z,95503.81
2022-11-21T16:43:26.579Z,95498.63
2022-11-21T16:45:33.577Z,95501.22
2022-11-21T16:47:38.127Z,95495.97
2022-11-21T16:49:45.048Z,95485.00
2022-11-21T16:51:47.661Z,95483.31
2022-11-21T16:53:50.803Z,95483.41
2022-11-21T16:56:00.993Z,95471.38
2022-11-21T16:58:03.915Z,95461.00
2022-11-21T17:00:07.947Z,95461.00
2022-11-21T17:02:14.671Z,95458.50
2022-11-21T17:04:17.802Z,95463.44
2022-11-21T17:06:22.401Z,95469.47
2022-11-21T17:08:25.117Z,95467.56
2022-11-21T17:10:46.281Z,95458.84
2022-11-21T17:12:49.176Z,95442.25
2022-11-21T17:14:52.052Z,95442.75
2022-11-21T17:16:54.626Z,95438.41
2022-11-21T17:19:00.311Z,95440.84
2022-11-21T17:21:04.684Z,95431.31
2022-11-21T17:23:07.281Z,95440.59
2022-11-21T17:25:10.713Z,95444.78
2022-11-21T17:27:13.282Z,95439.44
2022-11-21T17:29:16.015Z,95435.28
2022-11-21T17:31:19.085Z,95412.72
2022-11-21T17:33:21.851Z,95396.22
2022-11-21T17:35:25.865Z,95384.13
2022-11-21T17:37:28.455Z,95391.03
2022-11-21T17:39:31.470Z,95396.06
2022-11-21T17:41:34.277Z,95401.34
2022-11-21T17:43:36.940Z,95397.31
2022-11-21T17:45:39.535Z,95390.66
2022-11-21T17:47:42.261Z,95389.81
2022-11-21T17:49:45.000Z,95389.13
2022-11-21T17:51:52.480Z,95390.03
2022-11-21T17:53:59.365Z,95388.97
2022-11-21T17:56:03.782Z,95379.53
2022-11-21T17:58:06.412Z,95381.09
2022-11-21T18:00:10.323Z,95373.66
2022-11-21T18:02:13.148Z,95370.81
2022-11-21T18:04:17.714Z,95362.03
2022-11-21T18:06:20.436Z,95362.19
2022-11-21T18:08:24.425Z,95357.56
2022-11-21T18:10:42.882Z,95352.25
2022-11-21T18:12:46.235Z,95356.69
2022-11-21T18:14:48.849Z,95356.69
2022-11-21T18:16:53.573Z,95359.84
2022-11-21T18:18:56.844Z,95351.31
2022-11-21T18:21:03.459Z,95347.22
2022-11-21T18:23:06.082Z,95346.22
2022-11-21T18:25:10.514Z,95347.16
2022-11-21T18:27:13.162Z,95350.47
2022-11-21T18:31:39.070Z,95348.47
2022-11-21T18:33:42.697Z,95351.06
2022-11-21T18:35:45.339Z,95355.41
2022-11-21T18:37:47.981Z,95353.72
2022-11-21T18:39:51.576Z,95348.13
2022-11-21T18:41:55.549Z,95346.78
2022-11-21T18:44:00.277Z,95349.09
2022-11-21T18:46:04.481Z,95346.78
2022-11-21T18:48:07.099Z,95350.72
2022-11-21T18:50:10.488Z,95349.13
2022-11-21T18:52:13.046Z,95341.53
2022-11-21T18:54:15.662Z,95348.03
2022-11-21T18:56:18.372Z,95349.47
2022-11-21T18:58:22.365Z,95349.47
2022-11-21T19:00:26.306Z,95348.44
2022-11-21T19:02:28.902Z,95341.50
2022-11-21T19:04:31.490Z,95337.41
2022-11-21T19:06:34.255Z,95334.91
2022-11-21T19:08:36.877Z,95330.63
2022-11-21T19:10:43.622Z,95323.50
2022-11-21T19:12:46.508Z,95324.84
2022-11-21T19:14:51.943Z,95325.75
2022-11-21T19:16:54.550Z,95314.81
2022-11-21T19:19:32.504Z,95320.41
2022-11-21T19:21:20.125Z,95310.28
2022-11-21T19:23:22.682Z,95306.22
2022-11-21T19:25:25.308Z,95305.53
2022-11-21T19:27:27.914Z,95300.19
2022-11-21T19:29:30.975Z,95309.81
2022-11-21T19:31:40.692Z,95301.28
2022-11-21T19:33:47.517Z,95301.38
2022-11-21T19:35:50.104Z,95300.94
2022-11-21T19:37:52.794Z,95295.84
2022-11-21T19:39:55.368Z,95298.06
2022-11-21T19:41:57.978Z,95297.03
2022-11-21T19:44:02.561Z,95299.53
2022-11-21T19:46:06.004Z,95303.22
2022-11-21T19:48:09.951Z,95306.66
2022-11-21T19:50:12.554Z,95293.84
2022-11-21T19:52:15.174Z,95293.84
2022-11-21T19:54:17.805Z,95286.84
2022-11-21T19:56:22.663Z,95276.28
2022-11-21T19:58:27.406Z,95272.56
2022-11-21T20:00:30.242Z,95282.13
2022-11-21T20:02:32.873Z,95286.66
2022-11-21T20:04:37.125Z,95292.94
2022-11-21T20:06:42.451Z,95298.88
2022-11-21T20:08:45.611Z,95300.38
2022-11-21T20:10:48.258Z,95304.28
2022-11-21T20:12:50.889Z,95301.84
2022-11-21T20:14:54.067Z,95311.22
2022-11-21T20:16:57.248Z,95314.03
2022-11-21T20:19:01.364Z,95312.06
2022-11-21T20:21:12.336Z,95327.78
2022-11-21T20:23:14.926Z,95323.78
2022-11-21T20:25:17.801Z,95316.03
2022-11-21T20:27:20.408Z,95319.31
2022-11-21T20:29:23.120Z,95327.00
2022-11-21T20:31:28.094Z,95326.09
2022-11-21T20:33:30.795Z,95319.53
2022-11-21T20:35:33.361Z,95314.09
2022-11-21T20:37:37.282Z,95316.50
2022-11-21T20:39:39.900Z,95316.56
2022-11-21T20:41:43.013Z,95305.44
2022-11-21T20:44:26.725Z,95312.63
2022-11-21T20:46:12.911Z,95296.50
2022-11-21T20:48:20.390Z,95302.97
2022-11-21T20:51:01.431Z,95304.63
2022-11-21T20:55:10.824Z,95293.50
2022-11-21T20:57:15.535Z,95285.72
2022-11-21T20:59:18.549Z,95290.09
2022-11-21T21:01:23.885Z,95275.34
2022-11-21T21:03:28.913Z,95279.44
2022-11-21T21:05:31.623Z,95276.84
2022-11-21T21:07:34.298Z,95287.31
2022-11-21T21:09:39.441Z,95268.31
2022-11-21T21:11:57.447Z,95283.03
2022-11-21T21:14:00.103Z,95281.66
2022-11-21T21:16:07.365Z,95281.94
2022-11-21T21:18:10.043Z,95286.56
2022-11-21T21:20:12.730Z,95280.53
2022-11-21T21:22:15.542Z,95283.34
2022-11-21T21:24:18.380Z,95277.69
2022-11-21T21:26:24.488Z,95272.66
2022-11-21T21:28:27.073Z,95275.34
2022-11-21T21:30:29.903Z,95290.16
2022-11-21T21:32:32.492Z,95286.56
2022-11-21T21:34:35.126Z,95286.47
2022-11-21T21:36:37.918Z,95296.13
2022-11-21T21:38:41.349Z,95301.13
2022-11-21T21:40:44.762Z,95299.78
2022-11-21T21:42:48.954Z,95292.78
2022-11-21T21:44:51.938Z,95297.63
2022-11-21T21:46:54.570Z,95292.28
2022-11-21T21:48:59.164Z,95288.44
2022-11-21T21:51:03.847Z,95292.31
2022-11-21T21:53:06.684Z,95292.03
2022-11-21T21:55:09.699Z,95297.88
2022-11-21T21:57:12.506Z,95296.66
2022-11-21T21:59:18.041Z,95300.94
2022-11-21T22:01:23.740Z,95294.81
2022-11-21T22:03:26.374Z,95296.94
2022-11-21T22:05:29.051Z,95288.72
2022-11-21T22:07:31.759Z,95291.66
2022-11-21T22:09:34.387Z,95289.63
2022-11-21T22:11:39.110Z,95295.00
2022-11-21T22:13:43.116Z,95298.91
2022-11-21T22:15:47.063Z,95293.16
2022-11-21T22:17:49.670Z,95295.84
2022-11-21T22:19:52.588Z,95292.31
2022-11-21T22:21:55.183Z,95299.47
2022-11-21T22:26:21.590Z,95293.25
2022-11-21T22:28:24.547Z,95301.94
2022-11-21T22:30:27.127Z,95291.97
2022-11-21T22:32:31.114Z,95292.59
2022-11-21T22:34:33.822Z,95286.19
2022-11-21T22:36:36.617Z,95287.97
2022-11-21T22:38:39.501Z,95285.63
2022-11-21T22:40:42.120Z,95292.75
2022-11-21T22:42:44.784Z,95282.56
2022-11-21T22:44:47.419Z,95275.81
2022-11-21T22:46:50.063Z,95279.28
2022-11-21T22:48:54.291Z,95281.03
2022-11-21T22:50:57.426Z,95277.63
2022-11-21T22:53:00.049Z,95275.94
2022-11-21T22:55:02.669Z,95278.63
2022-11-21T22:57:05.321Z,95286.50
2022-11-21T22:59:07.929Z,95283.91
2022-11-21T23:01:12.715Z,95284.94
2022-11-21T23:03:15.338Z,95278.06
2022-11-21T23:05:19.404Z,95272.88
2022-11-21T23:07:22.109Z,95271.41
2022-11-21T23:09:24.749Z,95269.63
2022-11-21T23:11:29.330Z,95256.47
2022-11-21T23:13:32.015Z,95250.66
2022-11-21T23:15:34.616Z,95242.94
2022-11-21T23:17:37.513Z,95233.41
2022-11-21T23:19:40.094Z,95234.19
2022-11-21T23:21:44.554Z,95225.47
2022-11-21T23:23:47.121Z,95221.13
2022-11-21T23:25:49.971Z,95222.22
2022-11-21T23:27:52.570Z,95214.72
2022-11-21T23:29:55.182Z,95204.69
2022-11-21T23:31:57.759Z,95208.19
2022-11-21T23:34:00.390Z,95202.13
2022-11-21T23:36:02.980Z,95210.59
2022-11-21T23:38:07.000Z,95205.50
2022-11-21T23:40:10.975Z,95202.16
2022-11-21T23:42:13.601Z,95207.44
2022-11-21T23:44:16.178Z,95207.44
2022-11-21T23:46:18.799Z,95215.88
2022-11-21T23:48:25.444Z,95217.66
2022-11-21T23:50:28.071Z,95224.78
2022-11-21T23:52:30.654Z,95226.25
2022-11-21T23:54:34.549Z,95225.44
2022-11-21T23:56:37.132Z,95215.78
2022-11-21T23:58:39.829Z,95222.66
